createdAt,value
2019-06-26T00:00:18.945Z,24.41
2019-06-26T00:01:19.092Z,24.40
2019-06-26T00:02:19.147Z,24.39
2019-06-26T00:03:19.203Z,24.37
2019-06-26T00:04:19.260Z,24.35
2019-06-26T00:05:19.348Z,24.33
2019-06-26T00:06:19.413Z,24.32
2019-06-26T00:07:19.491Z,24.30
2019-06-26T00:08:19.541Z,24.29
2019-06-26T00:09:19.635Z,24.28
2019-06-26T00:10:19.683Z,24.27
2019-06-26T00:11:19.749Z,24.26
2019-06-26T00:12:19.792Z,24.24
2019-06-26T00:13:26.123Z,24.23
2019-06-26T00:14:19.996Z,24.22
2019-06-26T00:15:20.057Z,24.20
2019-06-26T00:16:20.103Z,24.18
2019-06-26T00:17:20.196Z,24.15
2019-06-26T00:18:20.263Z,24.13
2019-06-26T00:19:20.336Z,24.11
2019-06-26T00:20:20.926Z,24.09
2019-06-26T00:21:22.106Z,24.06
2019-06-26T00:22:21.325Z,24.04
2019-06-26T00:23:21.385Z,24.03
2019-06-26T00:25:21.732Z,24.01
2019-06-26T00:26:21.767Z,23.99
2019-06-26T00:27:21.868Z,23.98
2019-06-26T00:28:21.969Z,23.97
2019-06-26T00:29:21.990Z,23.96
2019-06-26T00:30:22.075Z,23.96
2019-06-26T00:31:22.110Z,23.96
2019-06-26T00:32:22.157Z,23.96
2019-06-26T00:33:22.239Z,23.95
2019-06-26T00:34:22.286Z,23.95
2019-06-26T00:35:22.331Z,23.94
2019-06-26T00:36:22.373Z,23.93
2019-06-26T00:37:22.439Z,23.92
2019-06-26T00:38:22.483Z,23.90
2019-06-26T00:39:22.526Z,23.88
2019-06-26T00:40:22.577Z,23.86
2019-06-26T00:41:22.661Z,23.85
2019-06-26T00:42:22.731Z,23.84
2019-06-26T00:43:22.804Z,23.83
2019-06-26T00:44:22.813Z,23.82
2019-06-26T00:45:22.937Z,23.81
2019-06-26T00:46:22.943Z,23.80
2019-06-26T00:47:22.988Z,23.80
2019-06-26T00:48:23.058Z,23.80
2019-06-26T00:49:23.095Z,23.79
2019-06-26T00:50:23.106Z,23.78
2019-06-26T00:51:23.175Z,23.77
2019-06-26T00:52:23.212Z,23.77
2019-06-26T00:53:23.285Z,23.75
2019-06-26T00:54:23.312Z,23.74
2019-06-26T00:55:23.362Z,23.73
2019-06-26T00:56:23.421Z,23.71
2019-06-26T00:57:23.465Z,23.69
2019-06-26T00:58:23.542Z,23.67
2019-06-26T00:59:23.567Z,23.66
2019-06-26T01:00:23.683Z,23.64
2019-06-26T01:01:23.663Z,23.62
2019-06-26T01:02:23.718Z,23.60
2019-06-26T01:03:23.791Z,23.58
2019-06-26T01:04:23.900Z,23.55
2019-06-26T01:05:23.860Z,23.53
2019-06-26T01:06:23.919Z,23.52
2019-06-26T01:07:24.118Z,23.50
2019-06-26T01:08:24.173Z,23.48
2019-06-26T01:09:24.198Z,23.47
2019-06-26T01:10:24.229Z,23.48
2019-06-26T01:11:27.278Z,23.50
2019-06-26T01:12:24.522Z,23.50
2019-06-26T01:13:24.634Z,23.50
2019-06-26T01:14:24.706Z,23.50
2019-06-26T01:15:24.776Z,23.49
2019-06-26T01:16:24.815Z,23.48
2019-06-26T01:17:24.877Z,23.44
2019-06-26T01:18:24.920Z,23.40
2019-06-26T01:19:25.014Z,23.39
2019-06-26T01:20:25.007Z,23.39
2019-06-26T01:21:25.075Z,23.38
2019-06-26T01:22:25.467Z,23.36
2019-06-26T01:23:25.528Z,23.35
2019-06-26T01:24:25.575Z,23.35
2019-06-26T01:25:25.601Z,23.33
2019-06-26T01:26:25.662Z,23.33
2019-06-26T01:27:25.739Z,23.33
2019-06-26T01:28:25.854Z,23.33
2019-06-26T01:29:25.895Z,23.33
2019-06-26T01:30:25.943Z,23.33
2019-06-26T01:31:25.985Z,23.29
2019-06-26T01:32:26.024Z,23.27
2019-06-26T01:33:26.070Z,23.26
2019-06-26T01:34:26.117Z,23.23
2019-06-26T01:35:26.168Z,23.23
2019-06-26T01:36:26.219Z,23.22
2019-06-26T01:37:26.329Z,23.20
2019-06-26T01:38:26.411Z,23.19
2019-06-26T01:40:11.112Z,23.19
2019-06-26T01:41:11.297Z,23.18
2019-06-26T01:42:11.502Z,23.16
2019-06-26T01:43:11.716Z,23.12
2019-06-26T01:44:15.348Z,23.11
2019-06-26T01:45:12.066Z,23.06
2019-06-26T01:46:12.256Z,23.05
2019-06-26T01:47:12.446Z,23.05
2019-06-26T01:48:12.639Z,23.04
2019-06-26T01:49:12.828Z,23.03
2019-06-26T01:50:13.025Z,23.02
2019-06-26T01:51:13.203Z,23.00
2019-06-26T01:52:13.401Z,22.99
2019-06-26T01:53:13.570Z,22.97
2019-06-26T01:54:13.826Z,22.96
2019-06-26T01:55:13.970Z,22.94
2019-06-26T01:56:14.162Z,22.90
2019-06-26T01:57:14.352Z,22.87
2019-06-26T01:58:14.561Z,22.84
2019-06-26T01:59:14.762Z,22.83
2019-06-26T02:00:14.946Z,22.81
2019-06-26T02:01:15.124Z,22.80
2019-06-26T02:02:15.314Z,22.79
2019-06-26T02:03:15.510Z,22.79
2019-06-26T02:04:15.897Z,22.77
2019-06-26T02:05:15.904Z,22.76
2019-06-26T02:06:16.138Z,22.78
2019-06-26T02:07:16.288Z,22.80
2019-06-26T02:08:16.481Z,22.82
2019-06-26T02:09:16.690Z,22.83
2019-06-26T02:10:16.892Z,22.83
2019-06-26T02:11:17.113Z,22.83
2019-06-26T02:12:17.309Z,22.82
2019-06-26T02:13:17.526Z,22.81
2019-06-26T02:14:30.328Z,22.80
2019-06-26T02:15:17.922Z,22.77
2019-06-26T02:16:18.125Z,22.73
2019-06-26T02:17:18.325Z,22.71
2019-06-26T02:18:18.503Z,22.71
2019-06-26T02:19:20.360Z,22.71
2019-06-26T02:20:20.549Z,22.71
2019-06-26T02:21:20.748Z,22.67
2019-06-26T02:22:20.942Z,22.66
2019-06-26T02:23:21.127Z,22.64
2019-06-26T02:24:21.322Z,22.62
2019-06-26T02:25:21.511Z,22.60
2019-06-26T02:26:21.693Z,22.59
2019-06-26T02:27:21.891Z,22.58
2019-06-26T02:28:22.065Z,22.56
2019-06-26T02:29:22.263Z,22.54
2019-06-26T02:30:22.462Z,22.52
2019-06-26T02:31:22.648Z,22.50
2019-06-26T02:32:22.842Z,22.48
2019-06-26T02:33:23.020Z,22.47
2019-06-26T02:34:23.211Z,22.48
2019-06-26T02:35:23.403Z,22.50
2019-06-26T02:36:23.589Z,22.48
2019-06-26T02:37:23.768Z,22.46
2019-06-26T02:38:23.959Z,22.44
2019-06-26T02:39:24.162Z,22.42
2019-06-26T02:40:24.365Z,22.39
2019-06-26T02:41:24.552Z,22.36
2019-06-26T02:42:24.752Z,22.35
2019-06-26T02:42:59.758Z,22.35
2019-06-26T02:43:40.326Z,22.35
2019-06-26T02:44:52.928Z,22.36
2019-06-26T02:45:40.439Z,22.36
2019-06-26T02:46:40.488Z,22.36
2019-06-26T02:47:40.521Z,22.35
2019-06-26T02:48:40.578Z,22.36
2019-06-26T02:49:40.618Z,22.36
2019-06-26T02:50:40.648Z,22.36
2019-06-26T02:51:40.718Z,22.35
2019-06-26T02:52:40.753Z,22.35
2019-06-26T02:53:40.826Z,22.35
2019-06-26T02:54:40.904Z,22.35
2019-06-26T02:55:41.002Z,22.35
2019-06-26T02:56:41.055Z,22.34
2019-06-26T02:57:41.189Z,22.33
2019-06-26T02:58:41.154Z,22.31
2019-06-26T02:59:41.269Z,22.32
2019-06-26T03:00:41.334Z,22.31
2019-06-26T03:01:41.356Z,22.30
2019-06-26T03:02:41.377Z,22.29
2019-06-26T03:03:41.423Z,22.28
2019-06-26T03:04:41.510Z,22.27
2019-06-26T03:05:41.573Z,22.27
2019-06-26T03:06:41.599Z,22.28
2019-06-26T03:07:41.661Z,22.27
2019-06-26T03:08:41.709Z,22.27
2019-06-26T03:09:41.777Z,22.26
2019-06-26T03:10:41.844Z,22.26
2019-06-26T03:11:41.852Z,22.25
2019-06-26T03:12:41.888Z,22.24
2019-06-26T03:13:41.940Z,22.24
2019-06-26T03:14:42.016Z,22.23
2019-06-26T03:15:42.059Z,22.22
2019-06-26T03:16:42.101Z,22.21
2019-06-26T03:17:54.979Z,22.21
2019-06-26T03:18:42.228Z,22.21
2019-06-26T03:19:42.281Z,22.21
2019-06-26T03:20:42.324Z,22.21
2019-06-26T03:21:42.319Z,22.21
2019-06-26T03:22:42.369Z,22.20
2019-06-26T03:23:42.448Z,22.20
2019-06-26T03:24:42.485Z,22.20
2019-06-26T03:25:42.553Z,22.19
2019-06-26T03:26:42.625Z,22.18
2019-06-26T03:27:42.656Z,22.18
2019-06-26T03:28:42.682Z,22.17
2019-06-26T03:29:42.728Z,22.16
2019-06-26T03:30:42.851Z,22.15
2019-06-26T03:31:42.934Z,22.14
2019-06-26T03:32:42.962Z,22.13
2019-06-26T03:33:43.015Z,22.13
2019-06-26T03:34:43.055Z,22.12
2019-06-26T03:35:43.102Z,22.12
2019-06-26T03:36:43.151Z,22.12
2019-06-26T03:37:43.182Z,22.12
2019-06-26T03:38:43.231Z,22.12
2019-06-26T03:39:43.294Z,22.12
2019-06-26T03:40:43.352Z,22.12
2019-06-26T03:41:43.403Z,22.12
2019-06-26T03:42:43.458Z,22.13
2019-06-26T03:43:43.509Z,22.13
2019-06-26T03:44:43.549Z,22.14
2019-06-26T03:45:43.782Z,22.14
2019-06-26T03:46:43.670Z,22.15
2019-06-26T03:47:43.714Z,22.16
2019-06-26T03:48:43.762Z,22.17
2019-06-26T03:49:43.846Z,22.18
2019-06-26T03:50:43.937Z,22.24
2019-06-26T03:51:43.952Z,22.30
2019-06-26T03:52:43.987Z,22.29
2019-06-26T03:53:44.052Z,22.32
2019-06-26T03:54:44.093Z,22.32
2019-06-26T03:55:44.161Z,22.34
2019-06-26T03:56:44.226Z,22.37
2019-06-26T03:57:44.283Z,22.38
2019-06-26T03:58:44.329Z,22.41
2019-06-26T03:59:44.384Z,22.45
2019-06-26T04:00:44.434Z,22.48
2019-06-26T04:01:44.483Z,22.52
2019-06-26T04:02:44.517Z,22.55
2019-06-26T04:03:44.553Z,22.57
2019-06-26T04:04:44.608Z,22.60
2019-06-26T04:05:44.633Z,22.63
2019-06-26T04:06:44.674Z,22.66
2019-06-26T04:07:44.701Z,22.67
2019-06-26T04:08:44.759Z,22.68
2019-06-26T04:09:44.785Z,22.71
2019-06-26T04:10:44.834Z,22.74
2019-06-26T04:11:44.877Z,22.77
2019-06-26T04:12:44.927Z,22.81
2019-06-26T04:14:45.017Z,22.85
2019-06-26T04:15:45.089Z,22.89
2019-06-26T04:16:45.151Z,22.93
2019-06-26T04:17:45.194Z,22.98
2019-06-26T04:18:45.228Z,23.02
2019-06-26T04:19:45.284Z,23.07
2019-06-26T04:20:45.331Z,23.11
2019-06-26T04:21:45.379Z,23.15
2019-06-26T04:23:04.137Z,23.19
2019-06-26T04:23:50.608Z,23.24
2019-06-26T04:24:46.067Z,23.28
2019-06-26T04:25:46.196Z,23.32
2019-06-26T04:26:49.024Z,23.35
2019-06-26T04:27:46.588Z,23.37
2019-06-26T04:28:46.685Z,23.35
2019-06-26T04:29:46.718Z,23.34
2019-06-26T04:30:46.781Z,23.34
2019-06-26T04:31:46.882Z,23.36
2019-06-26T04:32:46.986Z,23.38
2019-06-26T04:33:47.033Z,23.43
2019-06-26T04:34:47.133Z,23.49
2019-06-26T04:35:47.183Z,23.55
2019-06-26T04:36:47.287Z,23.62
2019-06-26T04:37:47.382Z,23.66
2019-06-26T04:38:47.436Z,23.68
2019-06-26T04:39:47.540Z,23.77
2019-06-26T04:40:47.582Z,23.86
2019-06-26T04:41:47.657Z,23.88
2019-06-26T04:42:47.715Z,23.89
2019-06-26T04:43:47.751Z,23.90
2019-06-26T04:44:47.827Z,23.92
2019-06-26T04:45:57.822Z,23.99
2019-06-26T04:46:47.959Z,24.01
2019-06-26T04:47:47.990Z,24.10
2019-06-26T04:48:48.029Z,24.13
2019-06-26T04:49:48.082Z,24.15
2019-06-26T04:50:48.124Z,24.18
2019-06-26T04:51:48.196Z,24.21
2019-06-26T04:52:48.274Z,24.24
2019-06-26T04:53:48.290Z,24.30
2019-06-26T04:54:48.319Z,24.33
2019-06-26T04:55:48.378Z,24.36
2019-06-26T04:56:48.438Z,24.40
2019-06-26T04:57:48.490Z,24.51
2019-06-26T04:58:48.730Z,24.61
2019-06-26T04:59:48.830Z,24.70
2019-06-26T05:00:48.916Z,24.72
2019-06-26T05:01:48.961Z,24.76
2019-06-26T05:02:48.997Z,24.86
2019-06-26T05:03:49.052Z,24.95
2019-06-26T05:04:49.094Z,25.04
2019-06-26T05:05:49.191Z,25.12
2019-06-26T05:06:49.226Z,25.19
2019-06-26T05:07:49.266Z,25.27
2019-06-26T05:08:49.298Z,25.33
2019-06-26T05:09:49.334Z,25.39
2019-06-26T05:10:49.375Z,25.47
2019-06-26T05:11:49.426Z,25.55
2019-06-26T05:12:49.470Z,25.61
2019-06-26T05:13:49.524Z,25.61
2019-06-26T05:14:49.554Z,25.61
2019-06-26T05:15:49.619Z,25.69
2019-06-26T05:16:49.686Z,25.70
2019-06-26T05:17:49.730Z,25.72
2019-06-26T05:18:49.754Z,25.75
2019-06-26T05:19:49.791Z,25.79
2019-06-26T05:20:49.821Z,25.84
2019-06-26T05:21:49.855Z,25.89
2019-06-26T05:22:49.943Z,25.93
2019-06-26T05:23:49.985Z,25.98
2019-06-26T05:24:50.007Z,26.02
2019-06-26T05:25:50.072Z,26.05
2019-06-26T05:26:50.099Z,26.11
2019-06-26T05:27:50.161Z,26.18
2019-06-26T05:28:50.197Z,26.26
2019-06-26T05:29:50.234Z,26.34
2019-06-26T05:30:50.301Z,26.42
2019-06-26T05:31:50.321Z,26.49
2019-06-26T05:32:50.363Z,26.56
2019-06-26T05:33:50.404Z,26.62
2019-06-26T05:34:50.433Z,26.68
2019-06-26T05:35:50.552Z,26.75
2019-06-26T05:36:50.576Z,26.80
2019-06-26T05:37:50.716Z,26.86
2019-06-26T05:38:50.828Z,26.92
2019-06-26T05:39:54.507Z,26.96
2019-06-26T05:40:50.940Z,27.00
2019-06-26T05:41:51.050Z,27.05
2019-06-26T05:42:51.115Z,27.10
2019-06-26T05:43:51.178Z,27.15
2019-06-26T05:44:51.215Z,27.20
2019-06-26T05:45:51.254Z,27.24
2019-06-26T05:46:51.303Z,27.29
2019-06-26T05:47:51.324Z,27.34
2019-06-26T05:48:51.364Z,27.38
2019-06-26T05:49:51.426Z,27.43
2019-06-26T05:50:51.465Z,27.49
2019-06-26T05:51:51.525Z,27.54
2019-06-26T05:52:51.875Z,27.60
2019-06-26T05:53:51.901Z,27.65
2019-06-26T05:54:52.136Z,27.70
2019-06-26T05:55:52.191Z,27.75
2019-06-26T05:56:52.444Z,27.81
2019-06-26T05:57:52.534Z,27.85
2019-06-26T05:58:52.545Z,27.91
2019-06-26T05:59:52.717Z,27.97
2019-06-26T06:00:52.773Z,28.02
2019-06-26T06:01:52.963Z,28.07
2019-06-26T06:02:54.067Z,28.12
2019-06-26T06:03:53.335Z,28.17
2019-06-26T06:04:53.465Z,28.22
2019-06-26T06:05:53.526Z,28.26
2019-06-26T06:06:53.738Z,28.32
2019-06-26T06:07:53.797Z,28.37
2019-06-26T06:08:53.857Z,28.42
2019-06-26T06:09:54.069Z,28.48
2019-06-26T06:10:57.868Z,28.54
2019-06-26T06:11:54.357Z,28.61
2019-06-26T06:12:54.400Z,28.67
2019-06-26T06:13:54.440Z,28.74
2019-06-26T06:14:54.509Z,28.81
2019-06-26T06:15:54.774Z,28.89
2019-06-26T06:16:54.862Z,28.96
2019-06-26T06:17:54.938Z,29.02
2019-06-26T06:18:55.041Z,29.08
2019-06-26T06:19:55.098Z,29.14
2019-06-26T06:20:55.353Z,29.19
2019-06-26T06:21:55.470Z,29.26
2019-06-26T06:22:55.528Z,29.32
2019-06-26T06:23:55.785Z,29.38
2019-06-26T06:24:56.009Z,29.45
2019-06-26T06:25:56.269Z,29.51
2019-06-26T06:26:56.511Z,29.57
2019-06-26T06:28:56.619Z,29.63
2019-06-26T06:29:56.660Z,29.68
2019-06-26T06:30:56.906Z,29.74
2019-06-26T06:31:56.944Z,29.80
2019-06-26T06:32:57.000Z,29.83
2019-06-26T06:33:57.047Z,29.88
2019-06-26T06:34:57.089Z,29.93
2019-06-26T06:35:57.278Z,29.99
2019-06-26T06:36:57.317Z,30.06
2019-06-26T06:37:57.383Z,30.14
2019-06-26T06:38:57.438Z,30.23
2019-06-26T06:39:57.495Z,30.32
2019-06-26T06:40:57.519Z,30.39
2019-06-26T06:41:57.561Z,30.47
2019-06-26T06:42:57.617Z,30.55
2019-06-26T06:43:57.672Z,30.63
2019-06-26T06:44:57.713Z,30.72
2019-06-26T06:45:57.776Z,30.81
2019-06-26T06:47:04.022Z,30.87
2019-06-26T06:47:57.875Z,30.94
2019-06-26T06:48:57.913Z,31.01
2019-06-26T06:49:57.980Z,31.06
2019-06-26T06:50:58.016Z,31.33
2019-06-26T06:51:58.046Z,31.34
2019-06-26T06:52:58.108Z,31.35
2019-06-26T06:53:58.198Z,31.36
2019-06-26T06:54:58.221Z,31.39
2019-06-26T06:55:58.267Z,31.54
2019-06-26T06:56:58.303Z,31.55
2019-06-26T06:57:58.341Z,31.64
2019-06-26T06:58:58.381Z,31.65
2019-06-26T06:59:58.427Z,31.76
2019-06-26T07:00:58.502Z,31.76
2019-06-26T07:01:58.556Z,31.91
2019-06-26T07:02:58.917Z,31.92
2019-06-26T07:03:58.975Z,32.06
2019-06-26T07:04:59.075Z,32.17
2019-06-26T07:05:59.100Z,32.18
2019-06-26T07:06:59.138Z,32.29
2019-06-26T07:07:59.193Z,32.40
2019-06-26T07:08:59.272Z,32.46
2019-06-26T07:09:59.354Z,32.52
2019-06-26T07:10:59.405Z,32.62
2019-06-26T07:11:59.844Z,32.67
2019-06-26T07:12:59.906Z,32.76
2019-06-26T07:13:59.954Z,32.83
2019-06-26T07:15:00.002Z,32.85
2019-06-26T07:16:00.094Z,32.89
2019-06-26T07:17:01.521Z,32.91
2019-06-26T07:18:00.179Z,32.93
2019-06-26T07:19:00.215Z,32.98
2019-06-26T07:20:00.265Z,33.01
2019-06-26T07:21:00.501Z,33.19
2019-06-26T07:22:00.401Z,33.28
2019-06-26T07:23:00.463Z,33.30
2019-06-26T07:24:00.511Z,33.31
2019-06-26T07:25:00.567Z,33.35
2019-06-26T07:26:00.686Z,33.33
2019-06-26T07:27:00.773Z,33.30
2019-06-26T07:28:02.030Z,33.32
2019-06-26T07:29:00.877Z,33.33
2019-06-26T07:30:00.979Z,33.35
2019-06-26T07:31:01.338Z,33.44
2019-06-26T07:32:01.492Z,33.52
2019-06-26T07:33:01.555Z,33.64
2019-06-26T07:34:01.744Z,33.68
2019-06-26T07:35:01.771Z,33.69
2019-06-26T07:36:02.114Z,33.72
2019-06-26T07:37:02.283Z,33.76
2019-06-26T07:38:02.356Z,33.77
2019-06-26T07:39:02.376Z,33.87
2019-06-26T07:40:02.705Z,33.94
2019-06-26T07:41:02.880Z,34.01
2019-06-26T07:42:02.841Z,34.10
2019-06-26T07:44:02.994Z,34.22
2019-06-26T07:45:03.036Z,34.35
2019-06-26T07:46:03.106Z,34.38
2019-06-26T07:47:03.152Z,34.39
2019-06-26T07:48:03.247Z,34.58
2019-06-26T07:49:03.268Z,34.72
2019-06-26T07:50:03.490Z,34.81
2019-06-26T07:51:03.667Z,34.84
2019-06-26T07:52:03.794Z,35.13
2019-06-26T07:53:03.815Z,35.22
2019-06-26T07:54:03.869Z,35.37
2019-06-26T07:55:03.925Z,35.50
2019-06-26T07:56:03.974Z,35.59
2019-06-26T07:57:04.041Z,35.69
2019-06-26T07:58:04.128Z,35.72
2019-06-26T07:59:04.170Z,35.90
2019-06-26T08:00:04.237Z,36.04
2019-06-26T08:01:04.338Z,36.15
2019-06-26T08:02:04.410Z,36.18
2019-06-26T08:03:04.869Z,36.34
2019-06-26T08:04:04.511Z,36.31
2019-06-26T08:05:04.612Z,36.37
2019-06-26T08:06:04.704Z,36.42
2019-06-26T08:07:04.750Z,36.52
2019-06-26T08:08:04.836Z,36.55
2019-06-26T08:09:04.905Z,36.55
2019-06-26T08:10:05.024Z,36.62
2019-06-26T08:11:06.594Z,36.70
2019-06-26T08:12:05.160Z,36.73
2019-06-26T08:13:05.239Z,36.92
2019-06-26T08:14:05.295Z,36.96
2019-06-26T08:15:05.344Z,37.29
2019-06-26T08:16:05.416Z,37.43
2019-06-26T08:17:05.480Z,37.44
2019-06-26T08:18:05.527Z,37.54
2019-06-26T08:19:05.602Z,37.65
2019-06-26T08:20:05.679Z,37.79
2019-06-26T08:21:12.732Z,37.87
2019-06-26T08:22:05.793Z,37.89
2019-06-26T08:23:05.867Z,37.91
2019-06-26T08:24:05.939Z,38.02
2019-06-26T08:25:06.006Z,38.05
2019-06-26T08:26:06.059Z,38.04
2019-06-26T08:27:06.111Z,38.01
2019-06-26T08:28:06.164Z,38.11
2019-06-26T08:29:06.186Z,38.16
2019-06-26T08:30:06.257Z,38.25
2019-06-26T08:31:06.304Z,38.32
2019-06-26T08:32:06.397Z,38.43
2019-06-26T08:33:06.398Z,38.53
2019-06-26T08:34:06.444Z,38.58
2019-06-26T08:35:06.504Z,38.73
2019-06-26T08:36:06.664Z,38.83
2019-06-26T08:37:06.643Z,38.94
2019-06-26T08:38:12.606Z,39.07
2019-06-26T08:39:06.793Z,39.24
2019-06-26T08:40:06.852Z,39.42
2019-06-26T08:41:06.923Z,39.57
2019-06-26T08:42:06.966Z,39.68
2019-06-26T08:43:07.068Z,39.70
2019-06-26T08:44:07.141Z,39.74
2019-06-26T08:45:07.273Z,39.74
2019-06-26T08:46:07.268Z,39.67
2019-06-26T08:47:07.312Z,39.55
2019-06-26T08:48:19.017Z,39.60
2019-06-26T08:49:24.043Z,39.68
2019-06-26T08:50:07.530Z,39.88
2019-06-26T08:51:07.610Z,40.06
2019-06-26T08:52:07.674Z,40.23
2019-06-26T08:53:07.728Z,40.35
2019-06-26T08:54:07.799Z,40.43
2019-06-26T08:55:07.871Z,40.53
2019-06-26T08:56:07.909Z,40.58
2019-06-26T08:57:07.958Z,40.60
2019-06-26T08:58:08.094Z,40.67
2019-06-26T08:59:08.137Z,40.74
2019-06-26T09:00:08.240Z,40.82
2019-06-26T09:01:08.360Z,40.94
2019-06-26T09:02:08.397Z,41.01
2019-06-26T09:03:08.458Z,41.05
2019-06-26T09:04:08.538Z,41.15
2019-06-26T09:05:08.597Z,41.25
2019-06-26T09:06:08.687Z,41.36
2019-06-26T09:07:08.776Z,41.47
2019-06-26T09:08:08.977Z,41.63
2019-06-26T09:09:08.897Z,41.74
2019-06-26T09:10:08.972Z,41.73
2019-06-26T09:11:09.060Z,41.79
2019-06-26T09:12:09.128Z,41.73
2019-06-26T09:13:09.179Z,41.50
2019-06-26T09:14:09.253Z,41.28
2019-06-26T09:15:09.312Z,41.29
2019-06-26T09:16:09.457Z,41.33
2019-06-26T09:17:09.534Z,41.25
2019-06-26T09:18:09.603Z,41.23
2019-06-26T09:19:09.658Z,41.40
2019-06-26T09:20:09.741Z,41.62
2019-06-26T09:21:09.804Z,41.87
2019-06-26T09:22:10.072Z,42.02
2019-06-26T09:23:09.935Z,42.07
2019-06-26T09:24:09.975Z,41.97
2019-06-26T09:25:21.678Z,41.79
2019-06-26T09:26:10.129Z,41.73
2019-06-26T09:27:10.167Z,41.65
2019-06-26T09:28:10.234Z,41.71
2019-06-26T09:29:10.303Z,41.84
2019-06-26T09:30:10.456Z,41.86
2019-06-26T09:31:10.420Z,41.99
2019-06-26T09:32:10.512Z,42.01
2019-06-26T09:33:10.559Z,42.18
2019-06-26T09:34:10.615Z,42.37
2019-06-26T09:35:10.649Z,42.49
2019-06-26T09:36:10.699Z,42.62
2019-06-26T09:37:10.768Z,42.79
2019-06-26T09:38:10.815Z,42.85
2019-06-26T09:39:10.856Z,42.95
2019-06-26T09:40:10.932Z,43.03
2019-06-26T09:41:10.990Z,43.27
2019-06-26T09:42:11.047Z,43.42
2019-06-26T09:43:11.266Z,43.42
2019-06-26T09:44:11.318Z,43.34
2019-06-26T09:45:11.375Z,43.42
2019-06-26T09:46:11.415Z,43.41
2019-06-26T09:47:11.811Z,43.45
2019-06-26T09:48:11.556Z,43.48
2019-06-26T09:49:11.599Z,43.56
2019-06-26T09:50:11.663Z,43.72
2019-06-26T09:51:11.732Z,43.79
2019-06-26T09:52:11.796Z,43.84
2019-06-26T09:53:11.897Z,44.21
2019-06-26T09:54:11.976Z,44.15
2019-06-26T09:55:12.048Z,43.87
2019-06-26T09:56:12.127Z,43.86
2019-06-26T09:57:12.176Z,43.87
2019-06-26T09:58:13.547Z,43.63
2019-06-26T09:59:12.306Z,43.54
2019-06-26T10:00:12.356Z,43.63
2019-06-26T10:01:12.463Z,43.73
2019-06-26T10:02:12.552Z,43.62
2019-06-26T10:03:12.600Z,43.62
2019-06-26T10:04:12.712Z,43.58
2019-06-26T10:05:12.780Z,43.75
2019-06-26T10:06:12.840Z,43.82
2019-06-26T10:07:12.947Z,43.81
2019-06-26T10:08:13.015Z,44.01
2019-06-26T10:09:13.091Z,44.12
2019-06-26T10:10:13.156Z,44.22
2019-06-26T10:11:13.229Z,44.23
2019-06-26T10:12:13.253Z,44.38
2019-06-26T10:13:13.372Z,44.42
2019-06-26T10:14:13.467Z,44.46
2019-06-26T10:16:13.516Z,44.62
2019-06-26T10:17:13.565Z,44.62
2019-06-26T10:18:13.621Z,44.53
2019-06-26T10:19:13.678Z,44.62
2019-06-26T10:20:13.718Z,44.49
2019-06-26T10:21:13.752Z,44.60
2019-06-26T10:22:13.789Z,44.61
2019-06-26T10:23:13.841Z,44.50
2019-06-26T10:24:13.904Z,44.44
2019-06-26T10:25:13.962Z,44.45
2019-06-26T10:26:14.009Z,44.53
2019-06-26T10:27:14.073Z,44.81
2019-06-26T10:28:14.150Z,44.93
2019-06-26T10:29:14.195Z,45.09
2019-06-26T10:30:14.246Z,45.21
2019-06-26T10:31:17.474Z,45.17
2019-06-26T10:32:14.450Z,45.13
2019-06-26T10:33:14.533Z,45.10
2019-06-26T10:34:14.617Z,45.13
2019-06-26T10:35:14.697Z,45.20
2019-06-26T10:36:14.781Z,45.18
2019-06-26T10:37:14.966Z,45.26
2019-06-26T10:38:15.028Z,45.44
2019-06-26T10:39:15.078Z,45.54
2019-06-26T10:40:16.567Z,45.52
2019-06-26T10:41:15.218Z,45.41
2019-06-26T10:42:15.295Z,45.52
2019-06-26T10:43:15.381Z,45.66
2019-06-26T10:44:15.394Z,45.70
2019-06-26T10:45:15.449Z,45.78
2019-06-26T10:46:15.475Z,45.75
2019-06-26T10:47:15.519Z,45.72
2019-06-26T10:48:15.561Z,45.73
2019-06-26T10:49:26.424Z,45.87
2019-06-26T10:51:15.714Z,46.00
2019-06-26T10:52:15.757Z,46.30
2019-06-26T10:53:15.820Z,46.38
2019-06-26T10:54:15.854Z,46.41
2019-06-26T10:55:15.920Z,46.39
2019-06-26T10:56:15.959Z,46.16
2019-06-26T10:57:16.008Z,46.00
2019-06-26T10:58:16.060Z,46.03
2019-06-26T10:59:16.116Z,46.02
2019-06-26T11:00:16.159Z,46.27
2019-06-26T11:01:16.188Z,46.48
2019-06-26T11:02:17.068Z,46.66
2019-06-26T11:03:16.284Z,46.68
2019-06-26T11:04:16.388Z,46.82
2019-06-26T11:05:16.431Z,46.81
2019-06-26T11:06:16.492Z,46.83
2019-06-26T11:07:16.568Z,46.67
2019-06-26T11:08:16.632Z,46.51
2019-06-26T11:09:16.675Z,46.50
2019-06-26T11:10:16.768Z,46.28
2019-06-26T11:11:16.860Z,46.14
2019-06-26T11:12:16.882Z,45.97
2019-06-26T11:13:16.933Z,45.97
2019-06-26T11:14:17.008Z,45.99
2019-06-26T11:15:17.076Z,45.90
2019-06-26T11:16:17.120Z,45.73
2019-06-26T11:17:17.164Z,45.73
2019-06-26T11:18:17.229Z,45.49
2019-06-26T11:19:17.277Z,45.56
2019-06-26T11:20:17.367Z,45.54
2019-06-26T11:21:17.361Z,45.54
2019-06-26T11:22:17.406Z,45.52
2019-06-26T11:23:17.566Z,45.60
2019-06-26T11:24:17.481Z,45.76
2019-06-26T11:25:17.515Z,45.82
2019-06-26T11:26:17.559Z,45.79
2019-06-26T11:27:17.625Z,45.64
2019-06-26T11:28:17.684Z,45.51
2019-06-26T11:29:17.721Z,45.21
2019-06-26T11:30:17.805Z,45.23
2019-06-26T11:31:17.833Z,45.15
2019-06-26T11:32:17.856Z,45.29
2019-06-26T11:33:17.892Z,45.56
2019-06-26T11:34:17.930Z,45.94
2019-06-26T11:35:17.985Z,46.15
2019-06-26T11:36:18.023Z,46.21
2019-06-26T11:37:18.093Z,46.39
2019-06-26T11:38:18.125Z,46.57
2019-06-26T11:39:18.184Z,46.67
2019-06-26T11:40:18.438Z,46.76
2019-06-26T11:41:18.487Z,46.82
2019-06-26T11:42:18.531Z,46.85
2019-06-26T11:43:18.653Z,46.84
2019-06-26T11:44:18.658Z,46.73
2019-06-26T11:45:18.715Z,46.75
2019-06-26T11:46:18.768Z,46.72
2019-06-26T11:47:18.841Z,46.67
2019-06-26T11:48:18.879Z,46.67
2019-06-26T11:49:18.947Z,46.78
2019-06-26T11:50:19.054Z,46.96
2019-06-26T11:51:19.171Z,47.22
2019-06-26T11:52:19.234Z,47.28
2019-06-26T11:53:19.360Z,47.16
2019-06-26T11:54:19.305Z,47.18
2019-06-26T11:55:19.407Z,47.25
2019-06-26T11:56:19.417Z,47.28
2019-06-26T11:57:19.454Z,47.37
2019-06-26T11:58:19.521Z,46.86
2019-06-26T11:59:19.582Z,46.69
2019-06-26T12:00:19.644Z,46.48
2019-06-26T12:01:20.022Z,46.53
2019-06-26T12:02:20.437Z,46.61
2019-06-26T12:03:20.494Z,46.81
2019-06-26T12:04:20.525Z,46.97
2019-06-26T12:05:20.568Z,47.01
2019-06-26T12:06:20.663Z,47.14
2019-06-26T12:07:20.720Z,47.40
2019-06-26T12:08:20.753Z,47.74
2019-06-26T12:09:20.792Z,48.06
2019-06-26T12:10:20.910Z,47.95
2019-06-26T12:11:21.300Z,47.87
2019-06-26T12:12:21.472Z,47.82
2019-06-26T12:13:21.505Z,47.91
2019-06-26T12:14:21.742Z,47.96
2019-06-26T12:15:21.611Z,48.01
2019-06-26T12:16:21.707Z,47.93
2019-06-26T12:17:21.740Z,47.81
2019-06-26T12:18:21.822Z,47.74
2019-06-26T12:19:23.573Z,47.52
2019-06-26T12:20:21.914Z,47.37
2019-06-26T12:21:21.949Z,47.07
2019-06-26T12:22:21.975Z,46.83
2019-06-26T12:23:22.011Z,46.61
2019-06-26T12:24:22.055Z,46.57
2019-06-26T12:26:22.475Z,46.50
2019-06-26T12:27:22.525Z,46.40
2019-06-26T12:28:22.638Z,46.42
2019-06-26T12:29:22.691Z,46.15
2019-06-26T12:30:22.731Z,46.15
2019-06-26T12:31:22.774Z,46.20
2019-06-26T12:32:22.830Z,46.37
2019-06-26T12:33:23.035Z,46.61
2019-06-26T12:34:23.071Z,46.82
2019-06-26T12:35:23.188Z,47.03
2019-06-26T12:36:23.310Z,47.29
2019-06-26T12:37:36.581Z,47.52
2019-06-26T12:38:23.692Z,47.75
2019-06-26T12:39:23.759Z,47.71
2019-06-26T12:40:23.828Z,47.91
2019-06-26T12:41:24.015Z,48.02
2019-06-26T12:42:24.143Z,48.17
2019-06-26T12:43:24.203Z,48.16
2019-06-26T12:44:24.245Z,48.26
2019-06-26T12:45:24.500Z,48.46
2019-06-26T12:46:24.539Z,48.60
2019-06-26T12:47:24.597Z,48.46
2019-06-26T12:48:24.697Z,48.30
2019-06-26T12:49:24.957Z,48.30
2019-06-26T12:50:35.334Z,48.21
2019-06-26T12:51:25.075Z,48.22
2019-06-26T12:52:25.169Z,48.26
2019-06-26T12:53:25.230Z,48.37
2019-06-26T12:54:25.292Z,48.47
2019-06-26T12:55:25.530Z,48.58
2019-06-26T12:56:25.427Z,48.76
2019-06-26T12:57:25.472Z,48.95
2019-06-26T12:58:25.599Z,49.05
2019-06-26T12:59:25.668Z,49.17
2019-06-26T13:00:25.753Z,49.25